sensor_id;sensor_type;location;lat;lon;timestamp;temperature;humidity
16172;DHT22;8192;53.596;10.166;2022-09-09T00:58:43;13.70;99.90
16172;DHT22;8192;53.596;10.166;2022-09-09T01:01:12;13.80;99.90
16172;DHT22;8192;53.596;10.166;2022-09-09T01:03:44;13.80;99.90
16172;DHT22;8192;53.596;10.166;2022-09-09T01:06:14;13.70;99.90
16172;DHT22;8192;53.596;10.166;2022-09-09T01:11:24;13.70;99.90
16172;DHT22;8192;53.596;10.166;2022-09-09T01:13:55;13.70;99.90
16172;DHT22;8192;53.596;10.166;2022-09-09T01:16:25;13.70;99.90
16172;DHT22;8192;53.596;10.166;2022-09-09T01:18:53;13.70;99.90
16172;DHT22;8192;53.596;10.166;2022-09-09T01:21:22;13.70;99.90
16172;DHT22;8192;53.596;10.166;2022-09-09T01:24:01;13.70;99.90
16172;DHT22;8192;53.596;10.166;2022-09-09T01:26:33;13.70;99.90
16172;DHT22;8192;53.596;10.166;2022-09-09T01:29:01;13.70;99.90
16172;DHT22;8192;53.596;10.166;2022-09-09T01:31:28;13.70;99.90
16172;DHT22;8192;53.596;10.166;2022-09-09T01:33:56;13.70;99.90
16172;DHT22;8192;53.596;10.166;2022-09-09T01:36:25;13.70;99.90
16172;DHT22;8192;53.596;10.166;2022-09-09T01:38:52;13.70;99.90
16172;DHT22;8192;53.596;10.166;2022-09-09T01:41:19;13.70;99.90
16172;DHT22;8192;53.596;10.166;2022-09-09T01:43:48;13.70;99.90
16172;DHT22;8192;53.596;10.166;2022-09-09T01:46:16;13.70;99.90
16172;DHT22;8192;53.596;10.166;2022-09-09T01:48:43;13.60;99.90
16172;DHT22;8192;53.596;10.166;2022-09-09T01:51:11;13.60;99.90
16172;DHT22;8192;53.596;10.166;2022-09-09T01:53:38;13.60;99.90
16172;DHT22;8192;53.596;10.166;2022-09-09T01:56:08;13.60;99.90
16172;DHT22;8192;53.596;10.166;2022-09-09T01:58:42;13.60;99.90
16172;DHT22;8192;53.596;10.166;2022-09-09T02:01:14;13.70;99.90
16172;DHT22;8192;53.596;10.166;2022-09-09T02:03:43;13.60;99.90
16172;DHT22;8192;53.596;10.166;2022-09-09T02:06:14;13.60;99.90
16172;DHT22;8192;53.596;10.166;2022-09-09T02:08:45;13.50;99.90
16172;DHT22;8192;53.596;10.166;2022-09-09T02:11:15;13.50;99.90
16172;DHT22;8192;53.596;10.166;2022-09-09T02:13:44;13.50;99.90
16172;DHT22;8192;53.596;10.166;2022-09-09T02:16:18;13.50;99.90
16172;DHT22;8192;53.596;10.166;2022-09-09T02:18:52;13.50;99.90
16172;DHT22;8192;53.596;10.166;2022-09-09T02:21:21;13.60;99.90
16172;DHT22;8192;53.596;10.166;2022-09-09T02:23:49;13.50;99.90
16172;DHT22;8192;53.596;10.166;2022-09-09T02:26:19;13.50;99.90
16172;DHT22;8192;53.596;10.166;2022-09-09T02:28:48;13.50;99.90
16172;DHT22;8192;53.596;10.166;2022-09-09T02:31:20;13.60;99.90
16172;DHT22;8192;53.596;10.166;2022-09-09T02:33:52;13.70;99.90
16172;DHT22;8192;53.596;10.166;2022-09-09T02:36:22;13.60;99.90
16172;DHT22;8192;53.596;10.166;2022-09-09T02:38:51;13.50;99.90
16172;DHT22;8192;53.596;10.166;2022-09-09T02:41:20;13.50;99.90
16172;DHT22;8192;53.596;10.166;2022-09-09T02:43:48;13.50;99.90
16172;DHT22;8192;53.596;10.166;2022-09-09T02:46:28;13.50;99.90
16172;DHT22;8192;53.596;10.166;2022-09-09T02:49:00;13.50;99.90
16172;DHT22;8192;53.596;10.166;2022-09-09T02:51:35;13.50;99.90
16172;DHT22;8192;53.596;10.166;2022-09-09T02:54:12;13.50;99.90
16172;DHT22;8192;53.596;10.166;2022-09-09T02:56:47;13.50;99.90
16172;DHT22;8192;53.596;10.166;2022-09-09T02:59:16;13.50;99.90
16172;DHT22;8192;53.596;10.166;2022-09-09T03:01:44;13.50;99.90
16172;DHT22;8192;53.596;10.166;2022-09-09T03:04:12;13.50;99.90
16172;DHT22;8192;53.596;10.166;2022-09-09T03:06:39;13.50;99.90
16172;DHT22;8192;53.596;10.166;2022-09-09T03:09:06;13.50;99.90
16172;DHT22;8192;53.596;10.166;2022-09-09T03:11:36;13.50;99.90
16172;DHT22;8192;53.596;10.166;2022-09-09T03:14:03;13.50;99.90
16172;DHT22;8192;53.596;10.166;2022-09-09T03:16:32;13.50;99.90
16172;DHT22;8192;53.596;10.166;2022-09-09T03:19:01;13.60;99.90
16172;DHT22;8192;53.596;10.166;2022-09-09T03:21:28;13.50;99.90
16172;DHT22;8192;53.596;10.166;2022-09-09T03:23:55;13.50;99.90
16172;DHT22;8192;53.596;10.166;2022-09-09T03:26:22;13.50;99.90
16172;DHT22;8192;53.596;10.166;2022-09-09T03:28:49;13.50;99.90
16172;DHT22;8192;53.596;10.166;2022-09-09T03:31:18;13.40;99.90
16172;DHT22;8192;53.596;10.166;2022-09-09T03:33:45;13.40;99.90
16172;DHT22;8192;53.596;10.166;2022-09-09T03:36:13;13.40;99.90
16172;DHT22;8192;53.596;10.166;2022-09-09T03:38:40;13.40;99.90
16172;DHT22;8192;53.596;10.166;2022-09-09T03:41:07;13.30;99.90
16172;DHT22;8192;53.596;10.166;2022-09-09T03:43:34;13.30;99.90
16172;DHT22;8192;53.596;10.166;2022-09-09T03:46:03;13.30;99.90
16172;DHT22;8192;53.596;10.166;2022-09-09T03:48:30;13.20;99.90
16172;DHT22;8192;53.596;10.166;2022-09-09T03:50:57;13.20;99.90
16172;DHT22;8192;53.596;10.166;2022-09-09T03:53:28;13.20;99.90
16172;DHT22;8192;53.596;10.166;2022-09-09T03:55:56;13.10;99.90
16172;DHT22;8192;53.596;10.166;2022-09-09T03:58:25;13.10;99.90
16172;DHT22;8192;53.596;10.166;2022-09-09T04:00:54;13.10;99.90
16172;DHT22;8192;53.596;10.166;2022-09-09T04:03:22;13.10;99.90
16172;DHT22;8192;53.596;10.166;2022-09-09T04:05:50;13.10;99.90
16172;DHT22;8192;53.596;10.166;2022-09-09T04:08:17;13.10;99.90
16172;DHT22;8192;53.596;10.166;2022-09-09T04:10:46;13.10;99.90
16172;DHT22;8192;53.596;10.166;2022-09-09T04:13:13;13.10;99.90
16172;DHT22;8192;53.596;10.166;2022-09-09T04:15:43;13.00;99.90
16172;DHT22;8192;53.596;10.166;2022-09-09T04:18:11;13.00;99.90
16172;DHT22;8192;53.596;10.166;2022-09-09T04:20:38;13.00;99.90
16172;DHT22;8192;53.596;10.166;2022-09-09T04:23:05;13.00;99.90
16172;DHT22;8192;53.596;10.166;2022-09-09T04:25:32;12.90;99.90
16172;DHT22;8192;53.596;10.166;2022-09-09T04:28:01;12.90;99.90
16172;DHT22;8192;53.596;10.166;2022-09-09T04:30:28;12.90;99.90
16172;DHT22;8192;53.596;10.166;2022-09-09T04:32:56;12.90;99.90
16172;DHT22;8192;53.596;10.166;2022-09-09T04:35:23;13.00;99.90
16172;DHT22;8192;53.596;10.166;2022-09-09T04:37:50;12.90;99.90
16172;DHT22;8192;53.596;10.166;2022-09-09T04:40:17;12.90;99.90
16172;DHT22;8192;53.596;10.166;2022-09-09T04:42:44;12.90;99.90
16172;DHT22;8192;53.596;10.166;2022-09-09T04:45:14;13.00;99.90
16172;DHT22;8192;53.596;10.166;2022-09-09T04:47:41;13.00;99.90
16172;DHT22;8192;53.596;10.166;2022-09-09T04:50:09;13.00;99.90
16172;DHT22;8192;53.596;10.166;2022-09-09T04:52:36;13.00;99.90
16172;DHT22;8192;53.596;10.166;2022-09-09T04:55:03;13.10;99.90
16172;DHT22;8192;53.596;10.166;2022-09-09T04:57:30;13.10;99.90
16172;DHT22;8192;53.596;10.166;2022-09-09T04:59:58;13.10;99.90
16172;DHT22;8192;53.596;10.166;2022-09-09T05:02:27;13.10;99.90
16172;DHT22;8192;53.596;10.166;2022-09-09T05:04:55;13.10;99.90
16172;DHT22;8192;53.596;10.166;2022-09-09T05:07:22;13.10;99.90
16172;DHT22;8192;53.596;10.166;2022-09-09T05:09:49;13.00;99.90
16172;DHT22;8192;53.596;10.166;2022-09-09T05:12:16;13.10;99.90
16172;DHT22;8192;53.596;10.166;2022-09-09T05:14:43;13.10;99.90
16172;DHT22;8192;53.596;10.166;2022-09-09T05:17:10;13.10;99.90
16172;DHT22;8192;53.596;10.166;2022-09-09T05:19:40;13.00;99.90
16172;DHT22;8192;53.596;10.166;2022-09-09T05:22:06;13.00;99.90
16172;DHT22;8192;53.596;10.166;2022-09-09T05:24:33;13.00;99.90
16172;DHT22;8192;53.596;10.166;2022-09-09T05:27:00;12.90;99.90
16172;DHT22;8192;53.596;10.166;2022-09-09T05:29:30;12.90;99.90
16172;DHT22;8192;53.596;10.166;2022-09-09T05:31:58;12.90;99.90
16172;DHT22;8192;53.596;10.166;2022-09-09T05:34:25;12.90;99.90
16172;DHT22;8192;53.596;10.166;2022-09-09T05:36:54;13.00;99.90
16172;DHT22;8192;53.596;10.166;2022-09-09T05:39:23;13.00;99.90
16172;DHT22;8192;53.596;10.166;2022-09-09T05:41:51;13.10;99.90
16172;DHT22;8192;53.596;10.166;2022-09-09T05:44:21;13.30;99.90
16172;DHT22;8192;53.596;10.166;2022-09-09T05:46:48;13.40;99.90
16172;DHT22;8192;53.596;10.166;2022-09-09T05:49:17;13.50;99.90
16172;DHT22;8192;53.596;10.166;2022-09-09T05:51:44;13.50;99.90
16172;DHT22;8192;53.596;10.166;2022-09-09T05:54:14;13.60;99.90
16172;DHT22;8192;53.596;10.166;2022-09-09T05:56:41;13.70;99.90
16172;DHT22;8192;53.596;10.166;2022-09-09T05:59:09;14.00;99.90
16172;DHT22;8192;53.596;10.166;2022-09-09T06:01:37;14.50;99.90
16172;DHT22;8192;53.596;10.166;2022-09-09T06:04:06;14.50;99.90
16172;DHT22;8192;53.596;10.166;2022-09-09T06:06:36;14.40;99.90
16172;DHT22;8192;53.596;10.166;2022-09-09T06:09:06;14.40;99.90
16172;DHT22;8192;53.596;10.166;2022-09-09T06:11:39;14.30;99.90
16172;DHT22;8192;53.596;10.166;2022-09-09T06:14:07;14.20;99.90
16172;DHT22;8192;53.596;10.166;2022-09-09T06:16:35;14.10;99.90
16172;DHT22;8192;53.596;10.166;2022-09-09T06:19:03;14.00;99.90
16172;DHT22;8192;53.596;10.166;2022-09-09T06:21:33;14.00;99.90
16172;DHT22;8192;53.596;10.166;2022-09-09T06:24:03;14.20;99.90
16172;DHT22;8192;53.596;10.166;2022-09-09T06:26:31;14.40;99.90
16172;DHT22;8192;53.596;10.166;2022-09-09T06:29:08;14.60;99.90
16172;DHT22;8192;53.596;10.166;2022-09-09T06:31:40;14.70;99.90
16172;DHT22;8192;53.596;10.166;2022-09-09T06:34:08;14.90;99.90
16172;DHT22;8192;53.596;10.166;2022-09-09T06:36:37;14.90;99.90
16172;DHT22;8192;53.596;10.166;2022-09-09T06:39:05;15.10;99.90
16172;DHT22;8192;53.596;10.166;2022-09-09T06:41:33;15.10;99.90
16172;DHT22;8192;53.596;10.166;2022-09-09T06:44:00;14.90;99.90
16172;DHT22;8192;53.596;10.166;2022-09-09T06:46:30;14.90;99.90
16172;DHT22;8192;53.596;10.166;2022-09-09T06:48:58;15.00;99.90
16172;DHT22;8192;53.596;10.166;2022-09-09T06:51:27;15.20;99.90
16172;DHT22;8192;53.596;10.166;2022-09-09T06:53:56;16.10;99.90
16172;DHT22;8192;53.596;10.166;2022-09-09T06:56:25;16.60;99.90
16172;DHT22;8192;53.596;10.166;2022-09-09T06:58:54;16.50;99.90
16172;DHT22;8192;53.596;10.166;2022-09-09T07:01:24;16.20;99.90
16172;DHT22;8192;53.596;10.166;2022-09-09T07:03:55;16.00;99.90
16172;DHT22;8192;53.596;10.166;2022-09-09T07:06:25;16.00;99.90
16172;DHT22;8192;53.596;10.166;2022-09-09T07:08:53;16.20;99.90
16172;DHT22;8192;53.596;10.166;2022-09-09T07:11:22;16.70;99.90
16172;DHT22;8192;53.596;10.166;2022-09-09T07:13:49;17.40;99.90
16172;DHT22;8192;53.596;10.166;2022-09-09T07:16:18;18.40;99.90
16172;DHT22;8192;53.596;10.166;2022-09-09T07:18:46;18.90;99.90
16172;DHT22;8192;53.596;10.166;2022-09-09T07:21:15;18.70;99.90
16172;DHT22;8192;53.596;10.166;2022-09-09T07:23:42;18.40;99.90
16172;DHT22;8192;53.596;10.166;2022-09-09T07:26:10;17.90;99.90
16172;DHT22;8192;53.596;10.166;2022-09-09T07:28:37;17.80;99.90
16172;DHT22;8192;53.596;10.166;2022-09-09T07:31:06;17.50;99.90
16172;DHT22;8192;53.596;10.166;2022-09-09T07:33:34;17.20;99.90
16172;DHT22;8192;53.596;10.166;2022-09-09T07:36:06;17.00;99.90
16172;DHT22;8192;53.596;10.166;2022-09-09T07:38:39;16.80;99.90
16172;DHT22;8192;53.596;10.166;2022-09-09T07:41:11;16.90;99.90
16172;DHT22;8192;53.596;10.166;2022-09-09T07:43:38;17.00;99.90
16172;DHT22;8192;53.596;10.166;2022-09-09T07:46:06;17.20;99.90
16172;DHT22;8192;53.596;10.166;2022-09-09T07:48:33;17.20;99.90
16172;DHT22;8192;53.596;10.166;2022-09-09T07:51:09;17.60;99.90
16172;DHT22;8192;53.596;10.166;2022-09-09T07:53:52;18.00;99.90
16172;DHT22;8192;53.596;10.166;2022-09-09T07:56:20;18.50;99.90
16172;DHT22;8192;53.596;10.166;2022-09-09T07:58:49;18.60;99.90
16172;DHT22;8192;53.596;10.166;2022-09-09T08:01:20;18.60;99.90
16172;DHT22;8192;53.596;10.166;2022-09-09T08:03:53;18.50;99.90
16172;DHT22;8192;53.596;10.166;2022-09-09T08:09:43;18.20;99.90
16172;DHT22;8192;53.596;10.166;2022-09-09T08:12:12;18.00;99.90
16172;DHT22;8192;53.596;10.166;2022-09-09T08:14:39;18.20;99.90
16172;DHT22;8192;53.596;10.166;2022-09-09T08:17:06;18.20;99.90
16172;DHT22;8192;53.596;10.166;2022-09-09T08:19:33;18.20;99.90
16172;DHT22;8192;53.596;10.166;2022-09-09T08:22:01;18.50;99.90
16172;DHT22;8192;53.596;10.166;2022-09-09T08:24:28;18.60;99.90
16172;DHT22;8192;53.596;10.166;2022-09-09T08:26:57;18.70;99.90
16172;DHT22;8192;53.596;10.166;2022-09-09T08:29:24;18.70;99.90
16172;DHT22;8192;53.596;10.166;2022-09-09T08:31:53;18.40;99.90
16172;DHT22;8192;53.596;10.166;2022-09-09T08:34:23;18.30;99.90
16172;DHT22;8192;53.596;10.166;2022-09-09T08:36:52;18.20;99.90
16172;DHT22;8192;53.596;10.166;2022-09-09T08:39:21;18.10;99.90
16172;DHT22;8192;53.596;10.166;2022-09-09T08:42:07;18.20;99.90
16172;DHT22;8192;53.596;10.166;2022-09-09T08:44:49;18.00;99.90
16172;DHT22;8192;53.596;10.166;2022-09-09T08:47:32;18.10;99.90
16172;DHT22;8192;53.596;10.166;2022-09-09T08:50:22;18.30;99.90
16172;DHT22;8192;53.596;10.166;2022-09-09T08:52:55;18.10;99.90
16172;DHT22;8192;53.596;10.166;2022-09-09T08:55:29;17.80;99.90
16172;DHT22;8192;53.596;10.166;2022-09-09T08:58:06;17.70;99.90
16172;DHT22;8192;53.596;10.166;2022-09-09T09:00:42;17.80;99.90
16172;DHT22;8192;53.596;10.166;2022-09-09T09:03:18;17.80;99.90
16172;DHT22;8192;53.596;10.166;2022-09-09T09:05:51;17.80;99.90
16172;DHT22;8192;53.596;10.166;2022-09-09T09:08:27;17.90;99.90
16172;DHT22;8192;53.596;10.166;2022-09-09T09:11:00;17.90;99.90
16172;DHT22;8192;53.596;10.166;2022-09-09T09:13:34;17.90;99.90
16172;DHT22;8192;53.596;10.166;2022-09-09T09:16:13;18.00;99.90
16172;DHT22;8192;53.596;10.166;2022-09-09T09:18:44;18.10;99.90
16172;DHT22;8192;53.596;10.166;2022-09-09T09:21:16;18.30;99.90
16172;DHT22;8192;53.596;10.166;2022-09-09T09:23:51;18.60;99.90
16172;DHT22;8192;53.596;10.166;2022-09-09T09:26:24;18.90;99.90
16172;DHT22;8192;53.596;10.166;2022-09-09T09:28:56;19.20;99.90
16172;DHT22;8192;53.596;10.166;2022-09-09T09:31:23;19.40;99.90
16172;DHT22;8192;53.596;10.166;2022-09-09T09:33:53;19.40;99.90
16172;DHT22;8192;53.596;10.166;2022-09-09T09:36:24;19.30;99.90
16172;DHT22;8192;53.596;10.166;2022-09-09T09:38:55;19.40;99.90
16172;DHT22;8192;53.596;10.166;2022-09-09T09:41:29;19.20;99.90
16172;DHT22;8192;53.596;10.166;2022-09-09T09:43:58;19.00;99.90
16172;DHT22;8192;53.596;10.166;2022-09-09T09:46:27;19.10;99.90
16172;DHT22;8192;53.596;10.166;2022-09-09T09:49:04;19.20;99.90
16172;DHT22;8192;53.596;10.166;2022-09-09T09:51:33;19.30;99.90
16172;DHT22;8192;53.596;10.166;2022-09-09T09:54:17;19.50;99.90
16172;DHT22;8192;53.596;10.166;2022-09-09T09:56:47;19.70;99.90
16172;DHT22;8192;53.596;10.166;2022-09-09T09:59:23;19.70;99.90
16172;DHT22;8192;53.596;10.166;2022-09-09T10:02:16;19.80;99.90
16172;DHT22;8192;53.596;10.166;2022-09-09T10:04:44;19.90;99.90
16172;DHT22;8192;53.596;10.166;2022-09-09T10:07:12;19.80;99.90
16172;DHT22;8192;53.596;10.166;2022-09-09T10:09:40;20.00;99.90
16172;DHT22;8192;53.596;10.166;2022-09-09T10:12:16;19.90;99.90
16172;DHT22;8192;53.596;10.166;2022-09-09T10:14:53;19.90;99.90
16172;DHT22;8192;53.596;10.166;2022-09-09T10:17:25;20.00;99.90
16172;DHT22;8192;53.596;10.166;2022-09-09T10:20:10;20.00;99.90
16172;DHT22;8192;53.596;10.166;2022-09-09T10:22:45;19.70;99.90
16172;DHT22;8192;53.596;10.166;2022-09-09T10:25:40;19.70;99.90
16172;DHT22;8192;53.596;10.166;2022-09-09T10:28:30;19.70;99.90
16172;DHT22;8192;53.596;10.166;2022-09-09T10:31:11;19.60;99.90
16172;DHT22;8192;53.596;10.166;2022-09-09T10:33:49;19.60;99.90
16172;DHT22;8192;53.596;10.166;2022-09-09T10:36:20;19.40;99.90
16172;DHT22;8192;53.596;10.166;2022-09-09T10:38:50;19.40;99.90
16172;DHT22;8192;53.596;10.166;2022-09-09T10:41:24;19.20;99.90
16172;DHT22;8192;53.596;10.166;2022-09-09T10:47:19;19.20;99.90
16172;DHT22;8192;53.596;10.166;2022-09-09T10:52:50;19.30;99.90
16172;DHT22;8192;53.596;10.166;2022-09-09T10:55:25;19.30;99.90
16172;DHT22;8192;53.596;10.166;2022-09-09T10:57:54;19.20;99.90
16172;DHT22;8192;53.596;10.166;2022-09-09T11:00:27;19.30;99.90
16172;DHT22;8192;53.596;10.166;2022-09-09T11:03:01;19.20;99.90
16172;DHT22;8192;53.596;10.166;2022-09-09T11:05:40;19.30;99.90
16172;DHT22;8192;53.596;10.166;2022-09-09T11:08:12;19.10;99.90
16172;DHT22;8192;53.596;10.166;2022-09-09T11:10:45;19.10;99.90
16172;DHT22;8192;53.596;10.166;2022-09-09T11:13:22;18.80;99.90
16172;DHT22;8192;53.596;10.166;2022-09-09T11:15:57;18.70;99.90
16172;DHT22;8192;53.596;10.166;2022-09-09T11:18:29;18.70;99.90
16172;DHT22;8192;53.596;10.166;2022-09-09T11:21:01;18.70;99.90
16172;DHT22;8192;53.596;10.166;2022-09-09T11:23:35;18.80;99.90
16172;DHT22;8192;53.596;10.166;2022-09-09T11:26:10;19.10;99.90
16172;DHT22;8192;53.596;10.166;2022-09-09T11:28:54;19.50;99.90
16172;DHT22;8192;53.596;10.166;2022-09-09T11:31:41;19.90;99.90
16172;DHT22;8192;53.596;10.166;2022-09-09T11:34:27;20.00;99.90
16172;DHT22;8192;53.596;10.166;2022-09-09T11:37:36;20.00;99.90
16172;DHT22;8192;53.596;10.166;2022-09-09T11:40:22;20.10;99.90
16172;DHT22;8192;53.596;10.166;2022-09-09T11:43:02;20.30;99.90
16172;DHT22;8192;53.596;10.166;2022-09-09T11:45:34;20.50;99.90
16172;DHT22;8192;53.596;10.166;2022-09-09T11:48:04;20.80;99.90
16172;DHT22;8192;53.596;10.166;2022-09-09T11:50:37;21.10;99.90
16172;DHT22;8192;53.596;10.166;2022-09-09T11:53:19;21.20;99.90
16172;DHT22;8192;53.596;10.166;2022-09-09T11:56:11;21.20;99.90
16172;DHT22;8192;53.596;10.166;2022-09-09T11:58:42;21.30;99.90
16172;DHT22;8192;53.596;10.166;2022-09-09T12:01:15;21.30;99.90
16172;DHT22;8192;53.596;10.166;2022-09-09T12:03:45;21.60;99.90
16172;DHT22;8192;53.596;10.166;2022-09-09T12:06:18;21.80;99.90
16172;DHT22;8192;53.596;10.166;2022-09-09T12:08:50;21.50;99.90
16172;DHT22;8192;53.596;10.166;2022-09-09T12:11:25;20.80;99.90
16172;DHT22;8192;53.596;10.166;2022-09-09T12:13:54;20.60;99.90
16172;DHT22;8192;53.596;10.166;2022-09-09T12:16:30;20.60;99.90
16172;DHT22;8192;53.596;10.166;2022-09-09T12:19:16;20.60;99.90
16172;DHT22;8192;53.596;10.166;2022-09-09T12:21:51;21.10;99.90
16172;DHT22;8192;53.596;10.166;2022-09-09T12:24:25;21.30;99.90
16172;DHT22;8192;53.596;10.166;2022-09-09T12:26:58;21.30;99.90
16172;DHT22;8192;53.596;10.166;2022-09-09T12:29:37;21.60;99.90
16172;DHT22;8192;53.596;10.166;2022-09-09T12:32:10;21.70;99.90
16172;DHT22;8192;53.596;10.166;2022-09-09T12:34:40;21.00;99.90
16172;DHT22;8192;53.596;10.166;2022-09-09T12:37:16;20.40;99.90
16172;DHT22;8192;53.596;10.166;2022-09-09T12:39:57;19.90;99.90
16172;DHT22;8192;53.596;10.166;2022-09-09T12:42:25;19.60;99.90
16172;DHT22;8192;53.596;10.166;2022-09-09T12:44:54;19.80;99.90
16172;DHT22;8192;53.596;10.166;2022-09-09T12:47:25;20.00;99.90
16172;DHT22;8192;53.596;10.166;2022-09-09T12:49:55;20.20;99.90
16172;DHT22;8192;53.596;10.166;2022-09-09T12:52:28;20.40;99.90
16172;DHT22;8192;53.596;10.166;2022-09-09T12:54:58;20.40;99.90
16172;DHT22;8192;53.596;10.166;2022-09-09T12:57:33;20.20;99.90
16172;DHT22;8192;53.596;10.166;2022-09-09T13:00:07;20.20;99.90
16172;DHT22;8192;53.596;10.166;2022-09-09T13:02:46;19.90;99.90
16172;DHT22;8192;53.596;10.166;2022-09-09T13:05:15;20.00;99.90
16172;DHT22;8192;53.596;10.166;2022-09-09T13:07:44;19.80;99.90
16172;DHT22;8192;53.596;10.166;2022-09-09T13:10:13;19.80;99.90
16172;DHT22;8192;53.596;10.166;2022-09-09T13:12:42;19.90;99.90
16172;DHT22;8192;53.596;10.166;2022-09-09T13:15:16;19.80;99.90
16172;DHT22;8192;53.596;10.166;2022-09-09T13:17:51;19.80;99.90
16172;DHT22;8192;53.596;10.166;2022-09-09T13:20:20;19.80;99.90
16172;DHT22;8192;53.596;10.166;2022-09-09T13:22:52;19.70;99.90
16172;DHT22;8192;53.596;10.166;2022-09-09T13:25:23;19.70;99.90
16172;DHT22;8192;53.596;10.166;2022-09-09T13:27:54;19.50;99.90
16172;DHT22;8192;53.596;10.166;2022-09-09T13:30:25;19.30;99.90
16172;DHT22;8192;53.596;10.166;2022-09-09T13:33:03;19.10;99.90
16172;DHT22;8192;53.596;10.166;2022-09-09T13:35:32;19.00;99.90
16172;DHT22;8192;53.596;10.166;2022-09-09T13:38:07;18.80;99.90
16172;DHT22;8192;53.596;10.166;2022-09-09T13:40:37;18.60;99.90
16172;DHT22;8192;53.596;10.166;2022-09-09T13:43:18;18.50;99.90
16172;DHT22;8192;53.596;10.166;2022-09-09T13:45:54;18.40;99.90
16172;DHT22;8192;53.596;10.166;2022-09-09T13:48:22;18.20;99.90
16172;DHT22;8192;53.596;10.166;2022-09-09T13:50:56;18.10;99.90
16172;DHT22;8192;53.596;10.166;2022-09-09T13:53:25;18.00;99.90
16172;DHT22;8192;53.596;10.166;2022-09-09T13:55:53;17.90;99.90
16172;DHT22;8192;53.596;10.166;2022-09-09T13:58:20;17.80;99.90
16172;DHT22;8192;53.596;10.166;2022-09-09T14:00:48;17.70;99.90
16172;DHT22;8192;53.596;10.166;2022-09-09T14:03:17;17.50;99.90
16172;DHT22;8192;53.596;10.166;2022-09-09T14:05:44;17.30;99.90
16172;DHT22;8192;53.596;10.166;2022-09-09T14:08:23;17.10;99.90
16172;DHT22;8192;53.596;10.166;2022-09-09T14:10:52;17.00;99.90
16172;DHT22;8192;53.596;10.166;2022-09-09T14:13:25;16.90;99.90
16172;DHT22;8192;53.596;10.166;2022-09-09T14:16:03;16.80;99.90
16172;DHT22;8192;53.596;10.166;2022-09-09T14:18:31;16.60;99.90
16172;DHT22;8192;53.596;10.166;2022-09-09T14:20:59;16.60;99.90
16172;DHT22;8192;53.596;10.166;2022-09-09T14:23:27;16.50;99.90
16172;DHT22;8192;53.596;10.166;2022-09-09T14:26:15;16.50;99.90
16172;DHT22;8192;53.596;10.166;2022-09-09T14:28:56;16.50;99.90
16172;DHT22;8192;53.596;10.166;2022-09-09T14:31:24;16.50;99.90
16172;DHT22;8192;53.596;10.166;2022-09-09T14:33:52;16.40;99.90
16172;DHT22;8192;53.596;10.166;2022-09-09T14:36:21;16.40;99.90
16172;DHT22;8192;53.596;10.166;2022-09-09T14:38:50;16.40;99.90
16172;DHT22;8192;53.596;10.166;2022-09-09T14:41:23;16.30;99.90
16172;DHT22;8192;53.596;10.166;2022-09-09T14:43:51;16.20;99.90
16172;DHT22;8192;53.596;10.166;2022-09-09T14:46:20;16.20;99.90
16172;DHT22;8192;53.596;10.166;2022-09-09T14:48:49;16.10;99.90
16172;DHT22;8192;53.596;10.166;2022-09-09T14:51:18;16.20;99.90
16172;DHT22;8192;53.596;10.166;2022-09-09T14:53:48;16.20;99.90
16172;DHT22;8192;53.596;10.166;2022-09-09T14:56:20;16.20;99.90
16172;DHT22;8192;53.596;10.166;2022-09-09T14:58:50;16.10;99.90
16172;DHT22;8192;53.596;10.166;2022-09-09T15:01:19;16.10;99.90
16172;DHT22;8192;53.596;10.166;2022-09-09T15:03:50;16.00;99.90
16172;DHT22;8192;53.596;10.166;2022-09-09T15:06:27;16.00;99.90
16172;DHT22;8192;53.596;10.166;2022-09-09T15:08:54;16.00;99.90
16172;DHT22;8192;53.596;10.166;2022-09-09T15:11:23;16.10;99.90
16172;DHT22;8192;53.596;10.166;2022-09-09T15:13:52;16.10;99.90
16172;DHT22;8192;53.596;10.166;2022-09-09T15:16:21;16.10;99.90
16172;DHT22;8192;53.596;10.166;2022-09-09T15:18:51;16.10;99.90
16172;DHT22;8192;53.596;10.166;2022-09-09T15:21:21;16.00;99.90
16172;DHT22;8192;53.596;10.166;2022-09-09T15:23:49;15.80;99.90
16172;DHT22;8192;53.596;10.166;2022-09-09T15:26:16;15.80;99.90
16172;DHT22;8192;53.596;10.166;2022-09-09T15:28:45;15.70;99.90
16172;DHT22;8192;53.596;10.166;2022-09-09T15:31:16;15.60;99.90
16172;DHT22;8192;53.596;10.166;2022-09-09T15:33:47;15.60;99.90
16172;DHT22;8192;53.596;10.166;2022-09-09T15:36:16;15.70;99.90
16172;DHT22;8192;53.596;10.166;2022-09-09T15:38:44;15.60;99.90
16172;DHT22;8192;53.596;10.166;2022-09-09T15:41:12;15.80;99.90
16172;DHT22;8192;53.596;10.166;2022-09-09T15:43:43;15.70;99.90
16172;DHT22;8192;53.596;10.166;2022-09-09T15:46:29;15.80;99.90
16172;DHT22;8192;53.596;10.166;2022-09-09T15:49:02;15.90;99.90
16172;DHT22;8192;53.596;10.166;2022-09-09T15:51:30;16.00;99.90
16172;DHT22;8192;53.596;10.166;2022-09-09T15:53:59;16.00;99.90
16172;DHT22;8192;53.596;10.166;2022-09-09T15:56:27;16.00;99.90
16172;DHT22;8192;53.596;10.166;2022-09-09T15:58:56;16.20;99.90
16172;DHT22;8192;53.596;10.166;2022-09-09T16:01:25;16.20;99.90
16172;DHT22;8192;53.596;10.166;2022-09-09T16:03:54;16.30;99.90
16172;DHT22;8192;53.596;10.166;2022-09-09T16:06:23;16.40;99.90
16172;DHT22;8192;53.596;10.166;2022-09-09T16:08:53;16.50;99.90
16172;DHT22;8192;53.596;10.166;2022-09-09T16:11:23;16.60;99.90
16172;DHT22;8192;53.596;10.166;2022-09-09T16:13:53;16.60;99.90
16172;DHT22;8192;53.596;10.166;2022-09-09T16:16:22;16.80;99.90
16172;DHT22;8192;53.596;10.166;2022-09-09T16:18:52;16.90;99.90
16172;DHT22;8192;53.596;10.166;2022-09-09T16:21:24;17.00;99.90
16172;DHT22;8192;53.596;10.166;2022-09-09T16:23:55;17.00;99.90
16172;DHT22;8192;53.596;10.166;2022-09-09T16:26:25;17.10;99.90
16172;DHT22;8192;53.596;10.166;2022-09-09T16:28:53;17.10;99.90
16172;DHT22;8192;53.596;10.166;2022-09-09T16:31:22;17.10;99.90
16172;DHT22;8192;53.596;10.166;2022-09-09T16:33:50;17.00;99.90
16172;DHT22;8192;53.596;10.166;2022-09-09T16:36:19;16.90;99.90
16172;DHT22;8192;53.596;10.166;2022-09-09T16:38:51;17.00;99.90
16172;DHT22;8192;53.596;10.166;2022-09-09T16:41:19;17.00;99.90
16172;DHT22;8192;53.596;10.166;2022-09-09T16:43:46;16.90;99.90
16172;DHT22;8192;53.596;10.166;2022-09-09T16:46:14;17.00;99.90
16172;DHT22;8192;53.596;10.166;2022-09-09T16:48:42;16.90;99.90
16172;DHT22;8192;53.596;10.166;2022-09-09T16:51:15;16.80;99.90
16172;DHT22;8192;53.596;10.166;2022-09-09T16:53:58;16.80;99.90
16172;DHT22;8192;53.596;10.166;2022-09-09T16:56:28;16.80;99.90
16172;DHT22;8192;53.596;10.166;2022-09-09T16:58:59;17.00;99.90
16172;DHT22;8192;53.596;10.166;2022-09-09T17:01:28;16.90;99.90
16172;DHT22;8192;53.596;10.166;2022-09-09T17:03:56;16.90;99.90